Time;durP1;ratioP1;P1;durP2;ratioP2;P2;SDS_P1;SDS_P2;PMS_P1;PMS_P2;Temp;Humidity;BMP_temperature;BMP_pressure;BME280_temperature;BME280_humidity;BME280_pressure;Samples;Min_cycle;Max_cycle;Signal;HPM_P1;HPM_P2
2024/01/31 00:01:37;;;;;;;13.85;7.93;;;9.00;99.90;;;;;;4980469;28;20035;-83
2024/01/31 00:04:04;;;;;;;13.10;7.90;;;9.00;99.90;;;;;;4996700;28;20073;-83
2024/01/31 00:06:31;;;;;;;15.27;8.20;;;9.00;99.90;;;;;;4980014;28;20141;-83
2024/01/31 00:08:57;;;;;;;15.43;7.38;;;9.00;99.90;;;;;;4996320;28;20109;-83
2024/01/31 00:11:25;;;;;;;14.93;7.65;;;9.00;99.90;;;;;;4979638;28;20039;-84
2024/01/31 00:13:52;;;;;;;14.25;7.70;;;9.10;99.90;;;;;;4979363;28;20037;-84
2024/01/31 00:16:17;;;;;;;13.30;7.18;;;9.10;99.90;;;;;;4979157;28;20109;-85
2024/01/31 00:18:43;;;;;;;13.05;7.38;;;9.10;99.90;;;;;;4979596;28;20064;-85
2024/01/31 00:21:08;;;;;;;15.10;8.30;;;9.10;99.90;;;;;;4978842;28;20030;-85
2024/01/31 00:23:34;;;;;;;12.13;7.20;;;9.10;99.90;;;;;;4979566;28;20026;-85
2024/01/31 00:26:00;;;;;;;15.55;7.63;;;9.10;99.90;;;;;;4978616;28;20030;-84
2024/01/31 00:28:26;;;;;;;13.80;7.40;;;9.10;99.90;;;;;;4979450;28;20117;-85
2024/01/31 00:30:51;;;;;;;16.05;8.63;;;9.10;99.90;;;;;;4979404;28;20069;-84
2024/01/31 00:33:17;;;;;;;13.13;7.03;;;9.10;99.90;;;;;;4978506;28;20030;-84
2024/01/31 00:35:42;;;;;;;14.73;8.07;;;9.10;99.90;;;;;;4996281;28;20038;-84
2024/01/31 00:38:08;;;;;;;16.67;8.18;;;9.10;99.90;;;;;;4978052;28;20037;-84
2024/01/31 00:40:34;;;;;;;12.45;7.40;;;9.10;99.90;;;;;;4979314;28;20027;-81
2024/01/31 00:42:59;;;;;;;14.25;8.23;;;9.10;99.90;;;;;;4978899;28;20121;-80
2024/01/31 00:45:25;;;;;;;12.82;7.70;;;9.10;99.90;;;;;;4979251;28;20387;-81
2024/01/31 00:47:50;;;;;;;13.38;7.38;;;9.10;99.90;;;;;;4996447;28;20037;-81
2024/01/31 00:50:16;;;;;;;13.13;7.00;;;9.10;99.90;;;;;;4978705;28;20057;-81
2024/01/31 00:52:42;;;;;;;14.95;7.70;;;9.10;99.90;;;;;;4978627;28;20038;-81
2024/01/31 00:55:08;;;;;;;14.48;7.78;;;9.10;99.90;;;;;;4995482;28;20023;-81
2024/01/31 00:57:33;;;;;;;13.95;7.53;;;9.10;99.90;;;;;;4978889;28;20022;-81
2024/01/31 01:00:04;;;;;;;13.45;7.35;;;9.10;99.90;;;;;;4978419;28;20022;-80
2024/01/31 01:02:30;;;;;;;12.57;7.28;;;9.20;99.90;;;;;;4979080;28;20027;-81
2024/01/31 01:04:55;;;;;;;13.50;7.57;;;9.10;99.90;;;;;;4978165;28;20104;-80
2024/01/31 01:07:21;;;;;;;14.27;7.13;;;9.10;99.90;;;;;;4978165;28;20034;-81
2024/01/31 01:09:46;;;;;;;13.60;7.70;;;9.20;99.90;;;;;;4995258;28;20069;-85
2024/01/31 01:12:12;;;;;;;12.77;7.63;;;9.20;99.90;;;;;;4995318;28;20034;-85
2024/01/31 01:14:37;;;;;;;15.45;7.10;;;9.20;99.90;;;;;;4995957;28;20065;-85
2024/01/31 01:17:04;;;;;;;12.95;7.22;;;9.20;99.90;;;;;;4995535;28;20057;-85
2024/01/31 01:19:29;;;;;;;13.45;7.38;;;9.20;99.90;;;;;;4978463;28;20076;-85
2024/01/31 01:21:56;;;;;;;11.57;6.32;;;9.20;99.90;;;;;;4978515;28;20129;-84
2024/01/31 01:24:22;;;;;;;11.45;7.10;;;9.20;99.90;;;;;;4995417;28;20157;-85
2024/01/31 01:26:48;;;;;;;19.08;7.78;;;9.20;99.90;;;;;;4978571;28;20077;-86
2024/01/31 01:29:13;;;;;;;11.48;6.85;;;9.20;99.90;;;;;;4977853;28;20030;-85
2024/01/31 01:31:39;;;;;;;14.02;7.47;;;9.20;99.90;;;;;;4977898;28;20030;-85
2024/01/31 01:34:04;;;;;;;14.50;7.10;;;9.20;99.90;;;;;;4977535;28;20116;-85
2024/01/31 01:36:30;;;;;;;12.77;7.07;;;9.20;99.90;;;;;;4978138;28;20042;-86
2024/01/31 01:38:55;;;;;;;12.93;6.97;;;9.20;99.90;;;;;;4978181;28;20450;-85
2024/01/31 01:41:21;;;;;;;12.23;6.95;;;9.20;99.90;;;;;;4977763;28;20031;-85
2024/01/31 01:43:47;;;;;;;12.07;7.00;;;9.20;99.90;;;;;;4978121;28;20438;-82
2024/01/31 01:46:16;;;;;;;12.57;6.70;;;9.20;99.90;;;;;;4977452;28;20463;-82
2024/01/31 01:48:46;;;;;;;12.27;6.97;;;9.20;99.90;;;;;;4961837;28;20057;-83
2024/01/31 01:51:17;;;;;;;11.73;6.70;;;9.20;99.90;;;;;;4994193;28;20033;-82
2024/01/31 01:53:44;;;;;;;14.88;6.88;;;9.20;99.90;;;;;;5010497;28;20027;-83
2024/01/31 01:56:11;;;;;;;12.18;6.65;;;9.20;99.90;;;;;;4994124;28;20034;-82
2024/01/31 01:58:37;;;;;;;11.75;6.72;;;9.30;99.90;;;;;;5010195;28;20064;-82
2024/01/31 02:01:03;;;;;;;10.43;6.45;;;9.30;99.90;;;;;;4977510;28;20034;-82
2024/01/31 02:03:29;;;;;;;14.10;6.95;;;9.30;99.90;;;;;;4977631;28;20116;-83
2024/01/31 02:05:59;;;;;;;12.35;6.80;;;9.30;99.90;;;;;;4991682;28;20065;-83
2024/01/31 02:08:27;;;;;;;11.77;6.38;;;9.30;99.90;;;;;;4995128;28;20085;-84
2024/01/31 02:10:53;;;;;;;15.45;7.18;;;9.30;99.90;;;;;;4994941;28;20030;-83
2024/01/31 02:13:19;;;;;;;12.80;7.00;;;9.30;99.90;;;;;;4993638;28;20180;-83
2024/01/31 02:15:54;;;;;;;12.20;6.68;;;9.30;99.90;;;;;;4994118;28;20030;-84
2024/01/31 02:18:27;;;;;;;11.73;6.60;;;9.30;99.90;;;;;;4993416;28;20037;-84
2024/01/31 02:20:53;;;;;;;12.73;6.70;;;9.30;99.90;;;;;;4993797;28;20464;-84
2024/01/31 02:23:20;;;;;;;12.43;6.18;;;9.30;99.90;;;;;;4993370;28;20118;-84
2024/01/31 02:25:45;;;;;;;14.55;7.63;;;9.30;99.90;;;;;;4994028;28;20030;-84
2024/01/31 02:28:11;;;;;;;12.70;7.03;;;9.30;99.90;;;;;;4993198;28;20029;-84
2024/01/31 02:30:36;;;;;;;12.35;6.82;;;9.30;99.90;;;;;;4993816;28;20085;-84
2024/01/31 02:33:02;;;;;;;11.30;6.43;;;9.30;99.90;;;;;;4993514;28;20113;-83
2024/01/31 02:35:32;;;;;;;13.50;7.05;;;9.30;99.90;;;;;;4993327;28;20035;-84
2024/01/31 02:37:57;;;;;;;12.93;6.40;;;9.30;99.90;;;;;;4993977;28;20398;-85
2024/01/31 02:40:23;;;;;;;13.88;7.22;;;9.30;99.90;;;;;;4993483;28;20026;-82
2024/01/31 02:42:48;;;;;;;11.35;7.03;;;9.30;99.90;;;;;;4993399;28;20104;-83
2024/01/31 02:45:14;;;;;;;12.32;6.70;;;9.30;99.90;;;;;;4992686;28;20498;-83
2024/01/31 02:47:40;;;;;;;14.48;6.85;;;9.30;99.90;;;;;;4993398;28;20449;-84
2024/01/31 02:50:06;;;;;;;14.90;7.25;;;9.30;99.90;;;;;;4992952;28;20117;-83
2024/01/31 02:52:31;;;;;;;15.50;7.25;;;9.30;99.90;;;;;;4993140;28;20034;-83
2024/01/31 02:54:58;;;;;;;14.50;7.00;;;9.20;99.90;;;;;;4994409;28;20046;-83
2024/01/31 02:57:26;;;;;;;14.93;6.78;;;9.30;99.90;;;;;;4992749;28;20072;-83
2024/01/31 02:59:52;;;;;;;16.73;7.78;;;9.30;99.90;;;;;;4993397;28;20042;-84
2024/01/31 03:02:18;;;;;;;13.52;7.35;;;9.20;99.90;;;;;;4992847;28;20038;-83
2024/01/31 03:04:44;;;;;;;13.63;7.15;;;9.30;99.90;;;;;;4993290;28;20050;-83
2024/01/31 03:07:10;;;;;;;10.68;6.93;;;9.30;99.90;;;;;;4992997;28;20065;-83
2024/01/31 03:09:37;;;;;;;12.60;7.10;;;9.30;99.90;;;;;;4993964;28;20027;-84
2024/01/31 03:12:04;;;;;;;16.63;8.23;;;9.30;99.90;;;;;;4993041;28;20030;-84
2024/01/31 03:14:31;;;;;;;13.48;7.20;;;9.30;99.90;;;;;;4992587;28;20474;-83
2024/01/31 03:16:56;;;;;;;14.68;7.70;;;9.20;99.90;;;;;;4994213;28;20080;-83
2024/01/31 03:19:22;;;;;;;11.27;7.25;;;9.20;99.90;;;;;;4992778;28;20026;-83
2024/01/31 03:21:47;;;;;;;18.30;7.82;;;9.20;99.90;;;;;;4993123;28;20467;-87
2024/01/31 03:24:15;;;;;;;13.40;7.57;;;9.30;99.90;;;;;;4993908;28;20055;-86
2024/01/31 03:26:41;;;;;;;15.95;7.40;;;9.30;99.90;;;;;;4994381;28;20030;-87
2024/01/31 03:29:07;;;;;;;15.45;7.63;;;9.20;99.90;;;;;;4993955;28;20077;-85
2024/01/31 03:31:32;;;;;;;13.18;6.57;;;9.30;99.90;;;;;;4993109;28;20022;-86
2024/01/31 03:33:58;;;;;;;12.90;6.95;;;9.20;99.90;;;;;;4994130;28;20026;-86
2024/01/31 03:36:23;;;;;;;11.88;6.95;;;9.20;99.90;;;;;;4996036;28;20118;-86
2024/01/31 03:38:49;;;;;;;14.18;7.32;;;9.20;99.90;;;;;;4997817;28;20026;-85
2024/01/31 03:41:14;;;;;;;14.43;6.97;;;9.20;99.90;;;;;;4995970;28;20030;-86
2024/01/31 03:43:40;;;;;;;12.85;7.78;;;9.20;99.90;;;;;;4996292;28;20037;-85
2024/01/31 03:46:06;;;;;;;12.57;7.22;;;9.20;99.90;;;;;;4996012;28;20026;-83
2024/01/31 03:48:32;;;;;;;14.52;7.20;;;9.20;99.90;;;;;;4996427;28;20034;-85
2024/01/31 03:50:59;;;;;;;11.25;6.57;;;9.20;99.90;;;;;;4996407;28;20489;-85
2024/01/31 03:53:25;;;;;;;13.88;7.40;;;9.20;99.90;;;;;;4995506;28;20113;-85
2024/01/31 03:55:51;;;;;;;14.82;6.53;;;9.20;99.90;;;;;;4996241;28;20117;-85
2024/01/31 03:58:17;;;;;;;15.20;7.00;;;9.20;99.90;;;;;;4995980;28;20054;-85
2024/01/31 04:00:43;;;;;;;13.40;7.43;;;9.20;99.90;;;;;;4996579;28;20030;-85
2024/01/31 04:03:09;;;;;;;12.80;7.00;;;9.20;99.90;;;;;;4995935;28;20533;-84
2024/01/31 04:05:34;;;;;;;16.88;7.07;;;9.20;99.90;;;;;;4996005;28;20054;-85
2024/01/31 04:08:00;;;;;;;13.32;6.78;;;9.20;99.90;;;;;;4996371;28;20031;-83
2024/01/31 04:10:26;;;;;;;14.05;6.93;;;9.20;99.90;;;;;;4996020;28;20029;-83
2024/01/31 04:12:52;;;;;;;13.48;7.72;;;9.20;99.90;;;;;;4996458;28;20031;-85
2024/01/31 04:15:18;;;;;;;13.82;7.68;;;9.20;99.90;;;;;;4995893;28;20081;-85
2024/01/31 04:17:44;;;;;;;12.27;6.78;;;9.20;99.90;;;;;;4996120;28;20468;-85
2024/01/31 04:20:11;;;;;;;12.63;7.15;;;9.20;99.90;;;;;;4996704;28;20126;-86
2024/01/31 04:22:40;;;;;;;12.93;7.28;;;9.20;99.90;;;;;;4996182;28;20121;-84
2024/01/31 04:25:06;;;;;;;19.10;8.02;;;9.20;99.90;;;;;;4996059;28;20026;-85
2024/01/31 04:27:31;;;;;;;14.20;7.18;;;9.20;99.90;;;;;;4995660;28;20374;-84
2024/01/31 04:29:58;;;;;;;10.70;6.72;;;9.20;99.90;;;;;;4995862;28;20026;-84
2024/01/31 04:32:24;;;;;;;12.90;7.30;;;9.20;99.90;;;;;;4995327;28;20026;-84
2024/01/31 04:34:50;;;;;;;13.13;7.53;;;9.20;99.90;;;;;;4996009;28;20034;-85
2024/01/31 04:37:16;;;;;;;17.33;8.52;;;9.10;99.90;;;;;;4996418;28;20085;-85
2024/01/31 04:39:42;;;;;;;18.88;9.52;;;9.10;99.90;;;;;;4995232;28;20463;-86
2024/01/31 04:42:08;;;;;;;15.75;8.75;;;9.20;99.90;;;;;;4996442;28;20037;-83
2024/01/31 04:44:34;;;;;;;15.32;7.82;;;9.20;99.90;;;;;;4995110;28;20031;-83
2024/01/31 04:47:00;;;;;;;15.23;8.07;;;9.20;99.90;;;;;;4995710;28;20073;-84
2024/01/31 04:49:25;;;;;;;15.50;7.88;;;9.30;99.90;;;;;;4995068;28;20459;-84
2024/01/31 04:51:51;;;;;;;13.30;8.18;;;9.20;99.90;;;;;;4995238;28;20030;-84
2024/01/31 04:54:17;;;;;;;15.90;8.02;;;9.30;99.90;;;;;;4995694;28;20054;-85
2024/01/31 04:56:42;;;;;;;15.63;8.48;;;9.20;99.90;;;;;;4996452;28;20033;-85
2024/01/31 04:59:08;;;;;;;15.07;7.85;;;9.20;99.90;;;;;;4995354;28;20026;-85
2024/01/31 05:01:34;;;;;;;14.88;7.60;;;9.20;99.90;;;;;;4994965;28;20037;-85
2024/01/31 05:04:00;;;;;;;13.27;7.93;;;9.20;99.90;;;;;;4995943;28;20161;-84
2024/01/31 05:06:26;;;;;;;12.63;6.38;;;9.20;99.90;;;;;;5011142;28;20053;-84
2024/01/31 05:08:51;;;;;;;11.18;6.32;;;9.20;99.90;;;;;;5011294;28;20034;-84
2024/01/31 05:11:17;;;;;;;13.00;5.60;;;9.20;99.90;;;;;;4978343;28;20029;-84
2024/01/31 05:13:43;;;;;;;10.25;5.90;;;9.10;99.90;;;;;;5010966;28;20434;-83
2024/01/31 05:16:09;;;;;;;8.68;4.57;;;9.00;99.90;;;;;;5011144;28;20109;-84
2024/01/31 05:18:35;;;;;;;8.38;5.15;;;9.00;99.90;;;;;;5010314;28;20057;-84
2024/01/31 05:21:01;;;;;;;9.48;4.53;;;9.00;99.90;;;;;;4978745;28;20030;-84
2024/01/31 05:23:27;;;;;;;7.25;4.05;;;8.90;99.90;;;;;;4978683;28;20061;-84
2024/01/31 05:25:52;;;;;;;7.85;4.30;;;9.00;99.90;;;;;;5011113;28;20065;-84
2024/01/31 05:28:18;;;;;;;5.95;3.28;;;8.90;99.90;;;;;;5010528;28;20069;-84
2024/01/31 05:30:44;;;;;;;9.15;3.65;;;9.00;99.90;;;;;;5010705;28;20451;-84
2024/01/31 05:33:10;;;;;;;6.15;3.38;;;8.90;99.90;;;;;;5010492;28;20463;-84
2024/01/31 05:35:36;;;;;;;9.10;3.45;;;8.90;99.90;;;;;;5009981;28;20081;-84
2024/01/31 05:38:03;;;;;;;7.03;3.47;;;8.90;99.90;;;;;;4995026;28;20033;-84
2024/01/31 05:40:29;;;;;;;4.80;2.53;;;8.90;99.90;;;;;;4977328;28;20080;-84
2024/01/31 05:42:55;;;;;;;6.80;2.95;;;9.00;99.90;;;;;;4978043;28;20125;-84
2024/01/31 05:45:20;;;;;;;8.55;3.00;;;9.00;99.90;;;;;;5010332;28;20177;-84
2024/01/31 05:47:46;;;;;;;5.85;2.78;;;8.90;99.90;;;;;;4995230;28;20039;-84
2024/01/31 05:50:11;;;;;;;5.60;2.80;;;8.90;99.90;;;;;;5010489;28;20030;-84
2024/01/31 05:52:37;;;;;;;6.38;3.30;;;8.90;99.90;;;;;;5010386;28;20026;-84
2024/01/31 05:55:03;;;;;;;4.40;3.10;;;8.90;99.90;;;;;;5010649;28;20112;-84
2024/01/31 05:57:29;;;;;;;6.50;3.55;;;8.90;99.90;;;;;;4977145;28;20030;-84
2024/01/31 05:59:54;;;;;;;9.75;3.92;;;8.90;99.90;;;;;;5010377;28;20379;-84
2024/01/31 06:02:20;;;;;;;6.90;4.07;;;8.80;99.90;;;;;;5009864;28;20034;-83
2024/01/31 06:04:45;;;;;;;8.43;4.03;;;8.80;99.90;;;;;;4982281;28;20057;-84
2024/01/31 06:07:12;;;;;;;10.07;4.60;;;8.70;99.90;;;;;;4994210;28;20038;-85
2024/01/31 06:09:38;;;;;;;10.02;4.38;;;8.70;99.90;;;;;;4993943;28;20450;-85
2024/01/31 06:12:07;;;;;;;10.85;5.07;;;8.70;99.90;;;;;;4993654;28;20033;-85
2024/01/31 06:14:36;;;;;;;9.20;4.45;;;8.70;99.90;;;;;;4994382;28;20096;-86
2024/01/31 06:17:03;;;;;;;9.65;5.13;;;8.70;99.90;;;;;;4994006;28;20030;-85
2024/01/31 06:19:29;;;;;;;7.00;4.30;;;8.80;99.90;;;;;;4993036;28;20018;-86
2024/01/31 06:21:54;;;;;;;8.70;4.88;;;8.80;99.90;;;;;;4994885;28;20045;-86
2024/01/31 06:24:20;;;;;;;9.38;5.05;;;8.80;99.90;;;;;;4992849;28;20073;-86
2024/01/31 06:26:45;;;;;;;9.52;5.35;;;8.80;99.90;;;;;;4993556;28;20529;-85
2024/01/31 06:29:17;;;;;;;10.88;5.55;;;8.80;99.90;;;;;;4993983;28;20037;-84
2024/01/31 06:31:46;;;;;;;16.20;5.78;;;8.80;99.90;;;;;;4993992;28;20101;-84
2024/01/31 06:34:13;;;;;;;9.75;5.30;;;8.80;99.90;;;;;;4993865;28;20088;-83
2024/01/31 06:36:38;;;;;;;11.20;5.93;;;8.80;99.90;;;;;;4993981;28;20041;-83
2024/01/31 06:39:04;;;;;;;10.63;5.53;;;8.80;99.90;;;;;;4993570;28;20414;-84
2024/01/31 06:41:31;;;;;;;9.77;5.43;;;8.80;99.90;;;;;;4993894;28;20030;-83
2024/01/31 06:43:57;;;;;;;12.02;5.70;;;8.70;99.90;;;;;;4993651;28;20036;-84
2024/01/31 06:46:23;;;;;;;8.70;4.18;;;8.80;99.90;;;;;;4992753;28;20117;-83
2024/01/31 06:48:48;;;;;;;11.40;5.22;;;8.70;99.90;;;;;;4994157;28;20093;-84
2024/01/31 06:51:14;;;;;;;8.75;4.82;;;8.80;99.90;;;;;;4993570;28;20136;-84
2024/01/31 06:53:39;;;;;;;8.95;4.70;;;8.70;99.90;;;;;;4993116;28;20042;-83
2024/01/31 06:56:06;;;;;;;8.32;4.50;;;8.70;99.90;;;;;;4993573;28;20037;-85
2024/01/31 06:58:32;;;;;;;8.60;4.60;;;8.70;99.90;;;;;;4992835;28;20075;-85
2024/01/31 07:01:01;;;;;;;9.38;4.53;;;8.70;99.90;;;;;;4993339;28;20027;-84
2024/01/31 07:03:26;;;;;;;7.40;4.80;;;8.70;99.90;;;;;;4992583;28;20122;-84
2024/01/31 07:05:52;;;;;;;9.68;4.70;;;8.70;99.90;;;;;;4993111;28;20074;-84
2024/01/31 07:08:18;;;;;;;7.38;4.07;;;8.70;99.90;;;;;;4993122;28;20027;-84
2024/01/31 07:10:43;;;;;;;9.05;3.85;;;8.60;99.90;;;;;;4997261;28;20530;-85
2024/01/31 07:13:09;;;;;;;7.47;4.13;;;8.60;99.90;;;;;;4997668;28;20384;-85
2024/01/31 07:15:34;;;;;;;10.98;4.13;;;8.60;99.90;;;;;;4996799;28;20044;-85
2024/01/31 07:18:00;;;;;;;6.57;4.03;;;8.60;99.90;;;;;;4997248;28;20027;-85
2024/01/31 07:20:25;;;;;;;6.35;3.95;;;8.60;99.90;;;;;;4996428;28;20034;-83
2024/01/31 07:22:51;;;;;;;7.93;4.18;;;8.60;99.90;;;;;;4997968;28;20034;-83
2024/01/31 07:25:17;;;;;;;8.80;4.18;;;8.70;99.90;;;;;;4996544;28;20033;-83
2024/01/31 07:27:44;;;;;;;8.75;4.25;;;8.70;99.90;;;;;;4996443;28;20535;-84
2024/01/31 07:30:10;;;;;;;13.30;5.70;;;8.70;99.90;;;;;;4995760;28;20030;-83
2024/01/31 07:32:37;;;;;;;11.43;5.40;;;8.70;99.90;;;;;;4995050;28;20034;-83
2024/01/31 07:35:03;;;;;;;11.63;5.90;;;8.70;99.90;;;;;;4996525;28;20030;-84
2024/01/31 07:37:28;;;;;;;12.43;6.03;;;8.70;99.90;;;;;;4994368;28;20063;-83
2024/01/31 07:39:56;;;;;;;12.05;5.68;;;8.70;99.90;;;;;;4996146;28;20037;-84
2024/01/31 07:42:22;;;;;;;13.70;5.88;;;8.70;99.90;;;;;;4995555;28;20031;-83
2024/01/31 07:44:47;;;;;;;12.52;6.32;;;8.70;99.90;;;;;;4996782;28;20594;-83
2024/01/31 07:47:13;;;;;;;14.43;6.78;;;8.80;99.90;;;;;;4996399;28;20141;-81
2024/01/31 07:49:41;;;;;;;11.77;6.72;;;8.80;99.90;;;;;;4995933;28;20034;-81
2024/01/31 07:52:06;;;;;;;15.00;7.07;;;8.80;99.90;;;;;;4996523;28;20030;-83
2024/01/31 07:54:32;;;;;;;14.32;7.57;;;8.80;99.90;;;;;;4995868;28;20022;-86
2024/01/31 07:56:57;;;;;;;13.32;7.05;;;8.80;99.90;;;;;;4997245;28;20053;-84
2024/01/31 07:59:23;;;;;;;12.00;6.43;;;8.80;99.90;;;;;;4995766;28;20480;-84
2024/01/31 08:01:49;;;;;;;11.68;6.10;;;8.80;99.90;;;;;;4996660;28;20035;-83
2024/01/31 08:04:14;;;;;;;15.63;6.93;;;8.90;99.90;;;;;;4996011;28;20081;-84
2024/01/31 08:06:43;;;;;;;12.68;6.68;;;8.80;99.90;;;;;;4995643;28;20030;-84
2024/01/31 08:09:10;;;;;;;12.95;6.53;;;8.90;99.90;;;;;;4996084;28;20030;-84
2024/01/31 08:11:44;;;;;;;11.90;5.80;;;8.90;99.90;;;;;;4995217;28;20099;-83
2024/01/31 08:14:10;;;;;;;11.68;6.40;;;8.90;99.90;;;;;;4993108;28;20022;-84
2024/01/31 08:16:37;;;;;;;11.43;6.18;;;8.90;99.90;;;;;;4994795;28;20034;-84
2024/01/31 08:19:03;;;;;;;10.52;6.20;;;8.90;99.90;;;;;;4994463;28;20033;-83
2024/01/31 08:21:32;;;;;;;10.00;6.38;;;8.90;99.90;;;;;;4994243;28;20388;-82
2024/01/31 08:23:58;;;;;;;10.23;6.40;;;8.90;99.90;;;;;;4995357;28;20479;-85
2024/01/31 08:26:23;;;;;;;13.43;6.47;;;8.90;99.90;;;;;;4994658;28;20463;-84
2024/01/31 08:28:49;;;;;;;12.23;6.30;;;8.90;99.90;;;;;;4994770;28;20034;-84
2024/01/31 08:31:14;;;;;;;14.18;6.85;;;9.00;99.90;;;;;;4994807;28;20026;-83
2024/01/31 08:33:40;;;;;;;12.38;6.30;;;9.00;99.90;;;;;;4994361;28;20228;-83
2024/01/31 08:36:05;;;;;;;10.65;5.90;;;9.00;99.90;;;;;;4993957;28;20113;-84
2024/01/31 08:38:31;;;;;;;10.75;6.00;;;9.00;99.90;;;;;;4993941;28;20487;-83
2024/01/31 08:40:57;;;;;;;11.40;6.10;;;9.00;99.90;;;;;;4994603;28;20031;-82
2024/01/31 08:43:22;;;;;;;13.43;5.95;;;9.10;99.90;;;;;;4994435;28;20031;-82
2024/01/31 08:45:48;;;;;;;12.73;5.80;;;9.10;99.90;;;;;;4994791;28;20026;-82
2024/01/31 08:48:13;;;;;;;11.25;5.63;;;9.10;99.90;;;;;;4994717;28;20026;-82
2024/01/31 08:50:39;;;;;;;12.68;5.50;;;9.10;99.90;;;;;;4993607;28;20030;-83
2024/01/31 08:53:04;;;;;;;10.80;5.38;;;9.00;99.90;;;;;;4994433;28;20037;-85
2024/01/31 08:55:30;;;;;;;10.32;5.78;;;9.00;99.90;;;;;;4994270;28;20030;-85
2024/01/31 08:57:55;;;;;;;11.55;6.07;;;9.00;99.90;;;;;;4994949;28;20117;-83
2024/01/31 09:00:21;;;;;;;11.23;5.32;;;9.10;99.90;;;;;;4995995;28;20072;-84
2024/01/31 09:02:47;;;;;;;12.05;5.97;;;9.10;99.90;;;;;;4995090;28;20467;-83
2024/01/31 09:05:12;;;;;;;12.13;5.30;;;9.20;99.90;;;;;;4993842;28;20042;-85
2024/01/31 09:07:38;;;;;;;8.20;4.90;;;9.10;99.90;;;;;;4993734;28;20045;-83
2024/01/31 09:10:04;;;;;;;9.60;5.10;;;9.10;99.90;;;;;;4994680;28;20022;-81
2024/01/31 09:12:30;;;;;;;10.70;6.05;;;9.10;99.90;;;;;;4995459;28;20041;-81
2024/01/31 09:14:56;;;;;;;9.32;5.05;;;9.10;99.90;;;;;;4985180;28;20392;-81
2024/01/31 09:17:22;;;;;;;9.85;4.60;;;9.10;99.90;;;;;;4979290;28;20022;-82
2024/01/31 09:19:47;;;;;;;8.63;3.83;;;9.20;99.90;;;;;;4980595;28;20023;-82
2024/01/31 09:22:13;;;;;;;7.28;3.80;;;9.20;99.90;;;;;;4976254;28;20066;-82
2024/01/31 09:24:39;;;;;;;8.98;4.07;;;9.20;99.90;;;;;;4979351;28;20022;-82
2024/01/31 09:27:06;;;;;;;10.32;4.05;;;9.30;99.90;;;;;;4994554;28;20030;-81
2024/01/31 09:29:31;;;;;;;8.98;4.03;;;9.30;99.90;;;;;;4995402;28;20073;-81
2024/01/31 09:31:57;;;;;;;7.43;4.28;;;9.30;99.90;;;;;;4994484;28;20030;-82
2024/01/31 09:34:23;;;;;;;7.47;3.95;;;9.30;99.90;;;;;;4993820;28;20032;-80
2024/01/31 09:36:49;;;;;;;8.05;3.90;;;9.30;99.90;;;;;;4994469;28;20536;-82
2024/01/31 09:39:15;;;;;;;8.43;3.80;;;9.40;99.90;;;;;;4993720;28;20026;-79
2024/01/31 09:41:41;;;;;;;9.15;3.67;;;9.40;99.90;;;;;;4993529;28;20481;-79
2024/01/31 09:44:07;;;;;;;6.38;3.25;;;9.40;99.90;;;;;;4993769;28;20023;-80
2024/01/31 09:46:35;;;;;;;4.18;2.70;;;9.40;99.90;;;;;;4994056;28;20109;-80
2024/01/31 09:49:00;;;;;;;8.15;3.30;;;9.40;99.90;;;;;;4994704;28;20053;-82
2024/01/31 09:51:26;;;;;;;6.35;2.90;;;9.30;99.90;;;;;;4994542;28;20446;-81
2024/01/31 09:53:56;;;;;;;6.95;3.10;;;9.40;99.90;;;;;;4993911;28;20451;-83
2024/01/31 09:56:22;;;;;;;5.10;2.85;;;9.40;99.90;;;;;;4993482;28;20088;-82
2024/01/31 09:58:48;;;;;;;5.90;2.85;;;9.40;99.90;;;;;;4993379;28;20093;-82
2024/01/31 10:01:16;;;;;;;5.65;2.60;;;9.40;99.90;;;;;;4994957;28;20019;-83
2024/01/31 10:03:42;;;;;;;4.15;2.42;;;9.40;99.90;;;;;;4993058;28;20049;-85
2024/01/31 10:06:07;;;;;;;6.72;2.63;;;9.50;99.90;;;;;;4994274;28;20054;-84
2024/01/31 10:08:35;;;;;;;6.68;2.83;;;9.50;99.90;;;;;;4993700;28;20029;-84
2024/01/31 10:11:00;;;;;;;8.02;2.30;;;9.50;99.90;;;;;;4977235;28;20074;-84
2024/01/31 10:13:27;;;;;;;6.50;2.70;;;9.60;99.90;;;;;;4977042;28;20030;-83
2024/01/31 10:15:53;;;;;;;4.97;2.53;;;9.60;99.90;;;;;;4994290;28;20026;-82
2024/01/31 10:18:18;;;;;;;4.18;2.67;;;9.60;99.90;;;;;;4976734;28;20141;-80
2024/01/31 10:20:50;;;;;;;7.75;3.10;;;9.50;99.90;;;;;;4976076;28;20081;-82
2024/01/31 10:23:16;;;;;;;4.13;2.70;;;9.50;99.90;;;;;;5011493;28;20058;-83
2024/01/31 10:25:41;;;;;;;4.68;3.20;;;9.50;99.90;;;;;;4974757;28;20035;-83
2024/01/31 10:28:08;;;;;;;4.93;2.50;;;9.60;99.90;;;;;;4990796;28;20027;-85
2024/01/31 10:30:40;;;;;;;5.28;2.17;;;9.60;99.90;;;;;;4976285;28;20101;-84
2024/01/31 10:33:07;;;;;;;10.52;3.03;;;9.60;99.90;;;;;;4994149;28;20035;-84
2024/01/31 10:35:34;;;;;;;6.25;3.22;;;9.60;99.90;;;;;;4993739;28;20471;-85
2024/01/31 10:38:00;;;;;;;8.38;2.97;;;9.70;99.90;;;;;;4977113;28;20022;-85
2024/01/31 10:40:28;;;;;;;4.47;2.70;;;9.70;99.90;;;;;;4997124;28;20034;-86
2024/01/31 10:42:54;;;;;;;6.55;3.00;;;9.80;99.90;;;;;;4993915;28;20031;-86
2024/01/31 10:45:22;;;;;;;7.65;3.08;;;9.80;99.90;;;;;;4977517;28;20435;-85
2024/01/31 10:47:48;;;;;;;5.40;2.90;;;9.90;99.90;;;;;;4993719;28;20124;-87
2024/01/31 10:50:14;;;;;;;6.45;1.95;;;9.90;99.90;;;;;;4973770;28;20519;-87
2024/01/31 10:52:41;;;;;;;5.28;2.20;;;9.90;99.90;;;;;;4956762;28;20053;-88
2024/01/31 10:55:09;;;;;;;6.07;2.28;;;10.00;99.90;;;;;;4987926;28;20065;-86
2024/01/31 10:57:35;;;;;;;4.80;2.20;;;10.00;99.90;;;;;;4976348;28;20027;-86
2024/01/31 11:00:02;;;;;;;3.65;1.92;;;10.00;99.90;;;;;;4977121;28;20023;-87
2024/01/31 11:02:30;;;;;;;3.95;1.70;;;9.90;99.90;;;;;;4976770;28;20042;-86
2024/01/31 11:05:04;;;;;;;3.30;1.80;;;9.90;99.90;;;;;;4994255;28;20078;-87
2024/01/31 11:07:30;;;;;;;3.50;1.50;;;9.90;99.90;;;;;;4993053;28;20033;-87
2024/01/31 11:09:56;;;;;;;4.03;1.30;;;10.00;99.90;;;;;;4977164;28;20113;-88
2024/01/31 11:12:22;;;;;;;3.72;2.03;;;10.10;99.90;;;;;;4977031;28;20030;-88
2024/01/31 11:14:50;;;;;;;4.22;1.92;;;10.10;99.90;;;;;;4976418;28;20383;-88
2024/01/31 11:17:19;;;;;;;4.47;1.90;;;10.10;99.90;;;;;;4977114;28;20027;-88
2024/01/31 11:19:52;;;;;;;4.93;1.75;;;10.10;99.90;;;;;;4976521;28;20029;-88
2024/01/31 11:22:19;;;;;;;5.68;1.98;;;10.20;99.90;;;;;;4977001;28;20030;-88
2024/01/31 11:24:49;;;;;;;6.90;2.22;;;10.30;99.90;;;;;;4976158;28;20109;-86
2024/01/31 11:27:16;;;;;;;2.60;1.60;;;10.30;99.90;;;;;;4977058;28;20027;-87
2024/01/31 11:29:42;;;;;;;4.38;2.40;;;10.40;99.90;;;;;;4993802;28;20482;-88
2024/01/31 11:32:09;;;;;;;8.80;4.30;;;10.30;99.90;;;;;;4977205;28;20468;-88
2024/01/31 11:34:36;;;;;;;7.60;3.63;;;10.30;99.90;;;;;;4976239;28;20125;-88
2024/01/31 11:37:01;;;;;;;11.82;5.20;;;10.30;99.90;;;;;;4977097;28;20034;-88
2024/01/31 11:39:27;;;;;;;10.77;4.15;;;10.30;99.90;;;;;;4977059;28;20030;-88
2024/01/31 11:41:54;;;;;;;9.82;5.53;;;10.30;99.90;;;;;;4976249;28;20106;-88
2024/01/31 11:44:19;;;;;;;12.25;5.30;;;10.30;99.90;;;;;;4993968;28;20022;-88
2024/01/31 11:46:45;;;;;;;9.85;5.38;;;10.20;99.90;;;;;;4976408;28;20471;-88
2024/01/31 11:49:11;;;;;;;11.73;5.32;;;10.40;99.90;;;;;;4976970;28;20026;-88
2024/01/31 11:51:37;;;;;;;9.68;5.65;;;10.50;99.90;;;;;;4976378;28;20068;-87
2024/01/31 11:54:02;;;;;;;11.00;6.10;;;10.60;99.90;;;;;;4994206;28;20479;-88
2024/01/31 11:56:29;;;;;;;10.82;6.05;;;10.70;99.90;;;;;;4980439;28;20038;-85
2024/01/31 11:58:55;;;;;;;15.15;6.00;;;10.70;99.90;;;;;;4979611;28;20062;-87
2024/01/31 12:01:21;;;;;;;12.25;5.30;;;10.70;99.90;;;;;;4980055;28;20026;-87
2024/01/31 12:03:47;;;;;;;10.25;4.88;;;10.70;99.90;;;;;;4996285;28;20050;-87
2024/01/31 12:06:18;;;;;;;14.98;5.38;;;10.80;99.90;;;;;;4980107;28;20137;-88
2024/01/31 12:08:47;;;;;;;12.10;5.03;;;10.80;99.90;;;;;;4979440;28;20058;-88
2024/01/31 12:11:16;;;;;;;12.00;5.60;;;10.90;99.90;;;;;;4997171;28;20040;-88
2024/01/31 12:13:45;;;;;;;11.52;5.30;;;10.80;99.90;;;;;;4979502;28;20030;-88
2024/01/31 12:16:11;;;;;;;11.07;5.15;;;10.70;99.90;;;;;;4980106;28;20030;-88
2024/01/31 12:18:37;;;;;;;11.73;5.13;;;10.70;99.90;;;;;;4979716;28;20049;-87
2024/01/31 12:21:04;;;;;;;9.27;5.03;;;10.60;99.90;;;;;;4979758;28;20459;-88
2024/01/31 12:23:30;;;;;;;10.85;5.18;;;10.70;99.90;;;;;;4979690;28;20376;-89
2024/01/31 12:25:57;;;;;;;13.10;5.63;;;10.60;99.90;;;;;;4979172;28;20125;-88
2024/01/31 12:28:23;;;;;;;10.95;5.20;;;10.70;99.90;;;;;;4979647;28;20026;-88
2024/01/31 12:30:49;;;;;;;14.27;5.30;;;10.60;99.90;;;;;;4996464;28;20037;-88
2024/01/31 12:33:15;;;;;;;12.60;5.78;;;10.60;99.90;;;;;;4979391;28;20030;-88
2024/01/31 12:35:40;;;;;;;13.77;5.72;;;10.60;99.90;;;;;;4978903;28;20040;-88
2024/01/31 12:38:07;;;;;;;13.35;5.88;;;10.60;99.90;;;;;;4979579;28;20037;-88
2024/01/31 12:40:33;;;;;;;11.85;5.97;;;10.60;99.90;;;;;;4979883;28;20037;-88
2024/01/31 12:42:59;;;;;;;11.68;5.57;;;10.70;99.90;;;;;;4979240;28;20034;-88